createdAt,value
2023-02-04T00:00:07.509Z,102159.00
2023-02-04T00:02:34.922Z,102163.66
2023-02-04T00:05:01.878Z,102161.94
2023-02-04T00:07:28.500Z,102168.75
2023-02-04T00:09:55.233Z,102169.84
2023-02-04T00:12:22.646Z,102179.53
2023-02-04T00:14:49.186Z,102175.91
2023-02-04T00:17:15.770Z,102189.56
2023-02-04T00:19:42.692Z,102182.03
2023-02-04T00:22:10.051Z,102192.06
2023-02-04T00:24:37.249Z,102197.09
2023-02-04T00:27:05.284Z,102202.56
2023-02-04T00:29:31.834Z,102199.19
2023-02-04T00:31:58.561Z,102203.22
2023-02-04T00:34:27.439Z,102203.34
2023-02-04T00:36:54.046Z,102198.91
2023-02-04T00:39:20.653Z,102203.41
2023-02-04T00:41:47.278Z,102199.88
2023-02-04T00:44:14.376Z,102202.44
2023-02-04T00:46:42.861Z,102211.72
2023-02-04T00:49:10.876Z,102195.66
2023-02-04T00:51:39.402Z,102203.50
2023-02-04T00:54:07.222Z,102206.88
2023-02-04T00:56:34.597Z,102201.19
2023-02-04T00:59:01.149Z,102205.25
2023-02-04T01:01:27.809Z,102212.31
2023-02-04T01:03:54.390Z,102217.31
2023-02-04T01:06:21.037Z,102216.97
2023-02-04T01:08:47.594Z,102223.41
2023-02-04T01:11:14.529Z,102221.66
2023-02-04T01:13:41.350Z,102226.09
2023-02-04T01:16:08.136Z,102230.41
2023-02-04T01:18:34.769Z,102237.94
2023-02-04T01:21:01.359Z,102238.34
2023-02-04T01:23:28.030Z,102238.50
2023-02-04T01:25:54.616Z,102242.47
2023-02-04T01:28:21.189Z,102241.50
2023-02-04T01:30:47.918Z,102238.53
2023-02-04T01:33:14.468Z,102252.34
2023-02-04T01:35:41.114Z,102241.59
2023-02-04T01:38:07.854Z,102251.09
2023-02-04T01:40:34.967Z,102258.56
2023-02-04T01:43:01.710Z,102255.72
2023-02-04T01:45:30.665Z,102255.47
2023-02-04T01:47:57.623Z,102251.84
2023-02-04T01:50:24.239Z,102250.59
2023-02-04T01:52:51.022Z,102259.34
2023-02-04T01:55:21.659Z,102257.00
2023-02-04T01:57:50.753Z,102269.06
2023-02-04T02:00:23.661Z,102274.06
2023-02-04T02:02:52.062Z,102276.19
2023-02-04T02:05:24.089Z,102280.47
2023-02-04T02:07:53.939Z,102272.88
2023-02-04T02:10:21.604Z,102274.44
2023-02-04T02:12:48.828Z,102271.34
2023-02-04T02:15:16.759Z,102280.81
2023-02-04T02:17:43.842Z,102280.59
2023-02-04T02:20:14.939Z,102274.41
2023-02-04T02:22:59.810Z,102286.16
2023-02-04T02:25:26.437Z,102303.00
2023-02-04T02:27:54.426Z,102307.09
2023-02-04T02:30:21.779Z,102307.38
2023-02-04T02:32:50.656Z,102309.72
2023-02-04T02:35:17.566Z,102299.97
2023-02-04T02:37:44.159Z,102317.78
2023-02-04T02:40:13.459Z,102311.19
2023-02-04T02:42:41.131Z,102310.88
2023-02-04T02:45:15.858Z,102314.38
2023-02-04T02:47:43.067Z,102306.25
2023-02-04T02:50:15.592Z,102308.47
2023-02-04T02:52:42.204Z,102301.94
2023-02-04T02:55:18.203Z,102311.88
2023-02-04T02:57:46.624Z,102305.47
2023-02-04T03:00:21.853Z,102306.25
2023-02-04T03:02:59.888Z,102314.41
2023-02-04T03:05:29.362Z,102315.25
2023-02-04T03:07:57.200Z,102311.91
2023-02-04T03:10:23.829Z,102319.94
2023-02-04T03:12:51.067Z,102310.47
2023-02-04T03:15:17.988Z,102303.56
2023-02-04T03:17:46.752Z,102323.47
2023-02-04T03:20:15.353Z,102316.66
2023-02-04T03:22:42.411Z,102321.19
2023-02-04T03:25:08.994Z,102328.84
2023-02-04T03:27:35.613Z,102321.75
2023-02-04T03:30:02.138Z,102328.84
2023-02-04T03:32:28.860Z,102321.47
2023-02-04T03:34:55.451Z,102333.63
2023-02-04T03:37:22.080Z,102331.72
2023-02-04T03:39:48.617Z,102332.31
2023-02-04T03:42:15.262Z,102338.78
2023-02-04T03:44:41.833Z,102344.56
2023-02-04T03:47:08.398Z,102335.53
2023-02-04T03:49:36.049Z,102340.44
2023-02-04T03:52:04.092Z,102335.34
2023-02-04T03:54:30.778Z,102347.53
2023-02-04T03:56:57.639Z,102343.03
2023-02-04T03:59:24.305Z,102347.69
2023-02-04T04:01:52.474Z,102346.53
2023-02-04T04:04:19.320Z,102347.44
2023-02-04T04:06:45.996Z,102354.19
2023-02-04T04:09:12.597Z,102357.75
2023-02-04T04:11:39.159Z,102363.22
2023-02-04T04:14:05.912Z,102361.13
2023-02-04T04:16:32.631Z,102364.66
2023-02-04T04:18:59.272Z,102364.66
2023-02-04T04:21:25.868Z,102373.19
2023-02-04T04:23:52.428Z,102370.16
2023-02-04T04:26:20.014Z,102369.47
2023-02-04T04:28:46.662Z,102378.75
2023-02-04T04:31:13.719Z,102386.28
2023-02-04T04:33:40.664Z,102385.63
2023-02-04T04:36:07.725Z,102393.31
2023-02-04T04:38:34.389Z,102393.75
2023-02-04T04:41:01.290Z,102381.31
2023-02-04T04:43:27.794Z,102386.09
2023-02-04T04:45:54.358Z,102393.59
2023-02-04T04:48:21.678Z,102395.88
2023-02-04T04:50:48.277Z,102389.84
2023-02-04T04:53:14.948Z,102387.56
2023-02-04T04:55:41.630Z,102401.38
2023-02-04T04:58:09.648Z,102399.31
2023-02-04T05:00:36.530Z,102398.06
2023-02-04T05:03:03.142Z,102400.09
2023-02-04T05:05:29.887Z,102407.38
2023-02-04T05:07:57.552Z,102406.94
2023-02-04T05:10:24.222Z,102404.19
2023-02-04T05:12:51.046Z,102426.06
2023-02-04T05:15:17.821Z,102423.75
2023-02-04T05:17:44.342Z,102424.34
2023-02-04T05:20:11.460Z,102428.13
2023-02-04T05:22:38.013Z,102431.28
2023-02-04T05:25:04.783Z,102434.59
2023-02-04T05:27:31.278Z,102428.25
2023-02-04T05:29:57.855Z,102430.53
2023-02-04T05:32:24.372Z,102429.22
2023-02-04T05:34:51.069Z,102436.41
2023-02-04T05:37:18.976Z,102442.25
2023-02-04T05:39:45.577Z,102434.31
2023-02-04T05:42:12.184Z,102443.63
2023-02-04T05:44:38.837Z,102452.59
2023-02-04T05:47:05.368Z,102443.22
2023-02-04T05:49:32.161Z,102445.63
2023-02-04T05:51:59.079Z,102452.41
2023-02-04T05:54:26.090Z,102452.41
2023-02-04T05:56:52.648Z,102458.19
2023-02-04T05:59:19.229Z,102464.56
2023-02-04T06:01:45.820Z,102470.16
2023-02-04T06:04:12.487Z,102464.78
2023-02-04T06:06:39.059Z,102472.84
2023-02-04T06:09:05.586Z,102462.88
2023-02-04T06:11:32.179Z,102467.19
2023-02-04T06:13:59.094Z,102472.00
2023-02-04T06:16:25.773Z,102492.50
2023-02-04T06:18:52.424Z,102492.97
2023-02-04T06:21:19.243Z,102489.72
2023-02-04T06:23:45.857Z,102484.38
2023-02-04T06:26:12.950Z,102487.59
2023-02-04T06:28:39.576Z,102491.72
2023-02-04T06:31:06.220Z,102491.06
2023-02-04T06:33:32.827Z,102489.63
2023-02-04T06:35:59.459Z,102482.03
2023-02-04T06:38:26.075Z,102476.38
2023-02-04T06:40:53.705Z,102486.91
2023-02-04T06:43:21.700Z,102485.88
2023-02-04T06:45:48.512Z,102488.84
2023-02-04T06:48:15.066Z,102496.63
2023-02-04T06:50:41.922Z,102501.09
2023-02-04T06:53:08.642Z,102501.22
2023-02-04T06:55:35.214Z,102513.75
2023-02-04T06:58:02.553Z,102505.84
2023-02-04T07:00:31.534Z,102511.13
2023-02-04T07:02:58.973Z,102510.34
2023-02-04T07:05:25.944Z,102509.44
2023-02-04T07:07:52.545Z,102506.97
2023-02-04T07:10:20.921Z,102507.94
2023-02-04T07:12:47.478Z,102514.34
2023-02-04T07:15:14.104Z,102520.16
2023-02-04T07:17:40.659Z,102517.91
2023-02-04T07:20:07.714Z,102525.47
2023-02-04T07:22:34.376Z,102528.88
2023-02-04T07:25:00.838Z,102535.56
2023-02-04T07:27:27.352Z,102535.00
2023-02-04T07:29:53.931Z,102539.13
2023-02-04T07:32:20.521Z,102548.69
2023-02-04T07:34:48.072Z,102548.59
2023-02-04T07:37:15.153Z,102542.81
2023-02-04T07:39:41.746Z,102539.47
2023-02-04T07:42:08.598Z,102548.34
2023-02-04T07:44:43.730Z,102547.34
2023-02-04T07:47:10.339Z,102541.97
2023-02-04T07:49:36.922Z,102548.47
2023-02-04T07:52:03.514Z,102549.53
2023-02-04T07:54:30.183Z,102557.34
2023-02-04T07:56:56.686Z,102550.53
2023-02-04T07:59:23.374Z,102555.50
2023-02-04T08:01:49.968Z,102551.19
2023-02-04T08:04:16.663Z,102551.59
2023-02-04T08:06:43.202Z,102555.75
2023-02-04T08:09:09.880Z,102558.94
2023-02-04T08:11:36.403Z,102563.09
2023-02-04T08:14:03.053Z,102566.22
2023-02-04T08:16:29.762Z,102572.34
2023-02-04T08:18:56.341Z,102581.09
2023-02-04T08:21:23.598Z,102577.25
2023-02-04T08:23:50.257Z,102582.56
2023-02-04T08:26:16.785Z,102581.94
2023-02-04T08:28:43.373Z,102586.06
2023-02-04T08:31:11.927Z,102591.84
2023-02-04T08:33:39.767Z,102597.78
2023-02-04T08:36:07.492Z,102610.69
2023-02-04T08:38:34.316Z,102615.09
2023-02-04T08:41:01.303Z,102622.41
2023-02-04T08:43:28.125Z,102619.09
2023-02-04T08:45:54.914Z,102622.66
2023-02-04T08:48:21.478Z,102623.53
2023-02-04T08:50:48.050Z,102619.00
2023-02-04T08:53:14.692Z,102631.97
2023-02-04T08:55:41.258Z,102623.53
2023-02-04T08:58:08.053Z,102626.97
2023-02-04T09:00:35.145Z,102642.94
2023-02-04T09:03:01.920Z,102624.19
2023-02-04T09:05:28.439Z,102631.66
2023-02-04T09:07:55.074Z,102634.56
2023-02-04T09:10:21.715Z,102633.41
2023-02-04T09:12:48.328Z,102637.72
2023-02-04T09:15:15.024Z,102636.59
2023-02-04T09:17:43.789Z,102639.59
2023-02-04T09:20:10.839Z,102638.44
2023-02-04T09:22:37.791Z,102645.19
2023-02-04T09:25:04.718Z,102651.53
2023-02-04T09:27:31.270Z,102643.47
2023-02-04T09:29:57.883Z,102643.19
2023-02-04T09:32:24.534Z,102642.78
2023-02-04T09:34:51.052Z,102642.78
2023-02-04T09:37:17.906Z,102642.84
2023-02-04T09:39:44.452Z,102638.19
2023-02-04T09:42:14.932Z,102652.06
2023-02-04T09:44:42.112Z,102648.50
2023-02-04T09:47:11.865Z,102661.25
2023-02-04T09:49:38.784Z,102655.44
2023-02-04T09:52:12.174Z,102665.16
2023-02-04T09:54:38.830Z,102669.63
2023-02-04T09:57:20.032Z,102666.44
2023-02-04T09:59:47.231Z,102672.16
2023-02-04T10:02:25.622Z,102679.38
2023-02-04T10:04:57.773Z,102676.66
2023-02-04T10:07:25.229Z,102686.50
2023-02-04T10:09:54.352Z,102691.13
2023-02-04T10:12:21.577Z,102686.94
2023-02-04T10:14:48.730Z,102692.06
2023-02-04T10:17:20.934Z,102694.44
2023-02-04T10:19:48.086Z,102694.56
2023-02-04T10:22:18.743Z,102693.66
2023-02-04T10:24:45.531Z,102701.34
2023-02-04T10:27:16.067Z,102694.19
2023-02-04T10:29:43.823Z,102695.63
2023-02-04T10:32:28.860Z,102694.16
2023-02-04T10:35:01.188Z,102685.94
2023-02-04T10:37:28.049Z,102680.69
2023-02-04T10:39:54.774Z,102680.91
2023-02-04T10:42:28.523Z,102685.09
2023-02-04T10:44:55.598Z,102679.59
2023-02-04T10:47:23.672Z,102682.22
2023-02-04T10:49:58.859Z,102688.69
2023-02-04T10:52:39.891Z,102683.03
2023-02-04T10:55:13.565Z,102688.34
2023-02-04T10:57:42.459Z,102685.63
2023-02-04T11:00:21.459Z,102686.00
2023-02-04T11:02:59.143Z,102681.25
2023-02-04T11:05:31.213Z,102677.06
2023-02-04T11:07:58.380Z,102688.16
2023-02-04T11:10:29.999Z,102684.75
2023-02-04T11:12:56.538Z,102694.13
2023-02-04T11:15:38.469Z,102687.31
2023-02-04T11:18:21.871Z,102687.28
2023-02-04T11:20:54.974Z,102701.94
2023-02-04T11:23:28.370Z,102701.97
2023-02-04T11:26:07.599Z,102700.28
2023-02-04T11:28:45.637Z,102698.78
2023-02-04T11:31:26.689Z,102691.34
2023-02-04T11:34:26.253Z,102693.00
2023-02-04T11:37:01.890Z,102697.09
2023-02-04T11:39:34.150Z,102690.09
2023-02-04T11:42:01.455Z,102695.78
2023-02-04T11:44:28.610Z,102695.22
2023-02-04T11:46:56.458Z,102692.88
2023-02-04T11:49:25.337Z,102692.22
2023-02-04T11:52:08.511Z,102698.31
2023-02-04T11:54:36.421Z,102695.53
2023-02-04T11:57:03.584Z,102697.91
2023-02-04T11:59:30.276Z,102695.22
2023-02-04T12:02:15.187Z,102693.53
2023-02-04T12:04:51.618Z,102690.06
2023-02-04T12:07:24.586Z,102693.13
2023-02-04T12:09:51.446Z,102698.66
2023-02-04T12:12:26.926Z,102698.06
2023-02-04T12:14:57.581Z,102690.78
2023-02-04T12:17:24.205Z,102703.22
2023-02-04T12:19:50.723Z,102687.44
2023-02-04T12:22:17.301Z,102708.19
2023-02-04T12:24:44.995Z,102706.56
2023-02-04T12:27:11.683Z,102706.31
2023-02-04T12:29:39.067Z,102699.09
2023-02-04T12:32:05.775Z,102704.69
2023-02-04T12:34:32.285Z,102701.44
2023-02-04T12:36:58.905Z,102695.91
2023-02-04T12:39:25.651Z,102701.59
2023-02-04T12:41:52.272Z,102706.00
2023-02-04T12:44:19.061Z,102702.50
2023-02-04T12:46:45.930Z,102704.16
2023-02-04T12:49:12.651Z,102717.72
2023-02-04T12:51:39.278Z,102719.41
2023-02-04T12:54:06.030Z,102718.84
2023-02-04T12:56:32.668Z,102720.88
2023-02-04T12:58:59.244Z,102719.28
2023-02-04T13:01:25.981Z,102718.22
2023-02-04T13:03:52.533Z,102718.88
2023-02-04T13:06:19.045Z,102711.56
2023-02-04T13:08:45.604Z,102716.06
2023-02-04T13:11:12.314Z,102723.94
2023-02-04T13:13:38.966Z,102716.19
2023-02-04T13:16:05.762Z,102714.47
2023-02-04T13:18:34.112Z,102704.94
2023-02-04T13:21:00.764Z,102702.53
2023-02-04T13:23:27.462Z,102696.66
2023-02-04T13:25:54.053Z,102696.75
2023-02-04T13:28:20.674Z,102695.56
2023-02-04T13:30:47.417Z,102693.16
2023-02-04T13:33:14.081Z,102693.84
2023-02-04T13:35:40.829Z,102681.28
2023-02-04T13:38:07.412Z,102683.47
2023-02-04T13:40:34.163Z,102685.06
2023-02-04T13:43:00.771Z,102682.78
2023-02-04T13:45:27.656Z,102672.72
2023-02-04T13:47:54.168Z,102682.06
2023-02-04T13:50:20.776Z,102674.81
2023-02-04T13:52:47.257Z,102684.56
2023-02-04T13:55:13.912Z,102683.84
2023-02-04T13:57:40.416Z,102673.47
2023-02-04T14:00:08.254Z,102680.78
2023-02-04T14:02:41.081Z,102679.50
2023-02-04T14:05:07.744Z,102678.19
2023-02-04T14:07:34.381Z,102681.56
2023-02-04T14:10:01.011Z,102683.59
2023-02-04T14:12:27.833Z,102689.34
2023-02-04T14:14:54.451Z,102674.03
2023-02-04T14:17:21.008Z,102689.91
2023-02-04T14:19:47.544Z,102690.19
2023-02-04T14:22:14.130Z,102685.16
2023-02-04T14:24:42.500Z,102688.50
2023-02-04T14:27:10.567Z,102686.75
2023-02-04T14:29:37.604Z,102703.00
2023-02-04T14:32:04.508Z,102697.94
2023-02-04T14:34:31.168Z,102700.50
2023-02-04T14:36:57.898Z,102700.00
2023-02-04T14:39:24.417Z,102696.69
2023-02-04T14:41:51.103Z,102696.84
2023-02-04T14:44:20.654Z,102700.56
2023-02-04T14:46:48.903Z,102707.44
2023-02-04T14:49:18.705Z,102715.03
2023-02-04T14:51:45.369Z,102714.84
2023-02-04T14:54:12.019Z,102715.94
2023-02-04T14:56:38.805Z,102718.94
2023-02-04T14:59:05.620Z,102713.00
2023-02-04T15:01:32.762Z,102714.28
2023-02-04T15:04:02.781Z,102708.06
2023-02-04T15:06:30.039Z,102706.56
2023-02-04T15:08:57.108Z,102711.06
2023-02-04T15:11:23.694Z,102700.94
2023-02-04T15:13:50.195Z,102707.56
2023-02-04T15:16:16.834Z,102706.53
2023-02-04T15:18:43.595Z,102710.16
2023-02-04T15:21:10.189Z,102715.63
2023-02-04T15:23:37.178Z,102698.47
2023-02-04T15:26:04.014Z,102705.78
2023-02-04T15:28:31.319Z,102707.91
2023-02-04T15:30:58.090Z,102708.44
2023-02-04T15:33:24.638Z,102707.94
2023-02-04T15:35:51.167Z,102710.56
2023-02-04T15:38:17.860Z,102716.63
2023-02-04T15:40:44.422Z,102719.34
2023-02-04T15:43:10.949Z,102714.22
2023-02-04T15:45:41.219Z,102721.06
2023-02-04T15:48:08.384Z,102716.78
2023-02-04T15:50:35.132Z,102715.53
2023-02-04T15:53:02.164Z,102717.53
2023-02-04T15:55:28.921Z,102725.41
2023-02-04T15:57:56.276Z,102722.06
2023-02-04T16:00:23.037Z,102727.63
2023-02-04T16:02:50.045Z,102728.72
2023-02-04T16:05:17.014Z,102727.22
2023-02-04T16:07:43.583Z,102736.84
2023-02-04T16:10:11.194Z,102740.81
2023-02-04T16:12:37.897Z,102731.91
2023-02-04T16:15:04.739Z,102735.72
2023-02-04T16:17:31.752Z,102735.03
2023-02-04T16:19:58.398Z,102748.94
2023-02-04T16:22:24.996Z,102743.69
2023-02-04T16:24:52.771Z,102748.69
2023-02-04T16:27:19.840Z,102749.00
2023-02-04T16:29:47.129Z,102750.53
2023-02-04T16:32:14.296Z,102759.06
2023-02-04T16:34:41.579Z,102755.22
2023-02-04T16:37:09.458Z,102758.03
2023-02-04T16:39:38.851Z,102763.69
2023-02-04T16:42:08.606Z,102768.97
2023-02-04T16:44:38.946Z,102769.03
2023-02-04T16:47:07.054Z,102771.91
2023-02-04T16:49:34.124Z,102778.50
2023-02-04T16:52:04.188Z,102787.78
2023-02-04T16:54:31.992Z,102785.13
2023-02-04T16:57:00.210Z,102790.75
2023-02-04T16:59:28.681Z,102797.78
2023-02-04T17:02:00.406Z,102789.72
2023-02-04T17:04:27.457Z,102788.59
2023-02-04T17:06:53.981Z,102793.22
2023-02-04T17:09:20.617Z,102794.44
2023-02-04T17:11:47.152Z,102790.50
2023-02-04T17:14:17.360Z,102792.81
2023-02-04T17:16:45.645Z,102799.31
2023-02-04T17:19:13.764Z,102795.31
2023-02-04T17:21:40.636Z,102796.19
2023-02-04T17:24:08.382Z,102791.44
2023-02-04T17:26:40.299Z,102796.78
2023-02-04T17:29:09.400Z,102793.13
2023-02-04T17:31:36.258Z,102791.91
2023-02-04T17:34:03.226Z,102801.97
2023-02-04T17:36:31.237Z,102798.78
2023-02-04T17:38:58.397Z,102799.19
2023-02-04T17:41:25.089Z,102801.13
2023-02-04T17:43:52.232Z,102792.00
2023-02-04T17:46:18.818Z,102796.34
2023-02-04T17:48:45.660Z,102797.06
2023-02-04T17:51:12.379Z,102790.78
2023-02-04T17:53:40.436Z,102796.13
2023-02-04T17:56:12.092Z,102799.16
2023-02-04T17:58:39.046Z,102798.25
2023-02-04T18:01:11.562Z,102790.72
2023-02-04T18:03:39.209Z,102798.50
2023-02-04T18:06:23.618Z,102784.50
2023-02-04T18:08:51.678Z,102793.91
2023-02-04T18:11:22.997Z,102788.91
2023-02-04T18:13:50.153Z,102800.06
2023-02-04T18:16:27.059Z,102795.13
2023-02-04T18:19:05.502Z,102797.91
2023-02-04T18:21:32.442Z,102797.19
2023-02-04T18:24:22.095Z,102789.63
2023-02-04T18:26:52.391Z,102797.41
2023-02-04T18:29:37.364Z,102799.19
2023-02-04T18:32:15.786Z,102796.63
2023-02-04T18:34:45.761Z,102791.41
2023-02-04T18:37:36.355Z,102797.56
2023-02-04T18:40:08.986Z,102793.38
2023-02-04T18:42:44.212Z,102805.44
2023-02-04T18:45:24.996Z,102802.56
2023-02-04T18:47:56.951Z,102800.19
2023-02-04T18:50:32.857Z,102808.72
2023-02-04T18:53:12.397Z,102804.34
2023-02-04T18:55:43.233Z,102803.13
2023-02-04T18:58:33.878Z,102811.16
2023-02-04T19:01:03.227Z,102810.13
2023-02-04T19:03:33.348Z,102803.97
2023-02-04T19:06:02.313Z,102803.53
2023-02-04T19:08:43.615Z,102808.75
2023-02-04T19:11:37.357Z,102800.81
2023-02-04T19:14:30.445Z,102805.56
2023-02-04T19:17:16.926Z,102806.78
2023-02-04T19:19:47.120Z,102801.41
2023-02-04T19:22:17.596Z,102798.13
2023-02-04T19:24:45.208Z,102801.69
2023-02-04T19:27:29.698Z,102800.81
2023-02-04T19:29:59.481Z,102808.00
2023-02-04T19:32:28.783Z,102811.34
2023-02-04T19:34:59.571Z,102803.91
2023-02-04T19:37:33.625Z,102809.88
2023-02-04T19:40:01.505Z,102810.22
2023-02-04T19:42:33.620Z,102805.44
2023-02-04T19:45:02.794Z,102815.09
2023-02-04T19:47:40.587Z,102814.72
2023-02-04T19:50:13.423Z,102821.25
2023-02-04T19:52:52.309Z,102810.03
2023-02-04T19:55:35.101Z,102813.38
2023-02-04T19:58:17.742Z,102815.59
2023-02-04T20:00:51.461Z,102826.22
2023-02-04T20:03:20.948Z,102828.28
2023-02-04T20:05:47.636Z,102818.94
2023-02-04T20:08:37.734Z,102821.38
2023-02-04T20:11:36.857Z,102816.47
2023-02-04T20:14:15.676Z,102813.34
2023-02-04T20:16:58.345Z,102803.66
2023-02-04T20:19:34.426Z,102807.63
2023-02-04T20:22:23.359Z,102804.19
2023-02-04T20:24:52.914Z,102803.03
2023-02-04T20:27:27.418Z,102795.38
2023-02-04T20:30:26.649Z,102797.19
2023-02-04T20:32:58.515Z,102801.88
2023-02-04T20:35:28.412Z,102797.22
2023-02-04T20:37:57.757Z,102800.47
2023-02-04T20:40:35.704Z,102800.22
2023-02-04T20:43:16.092Z,102799.84
2023-02-04T20:45:55.676Z,102789.09
2023-02-04T20:48:32.864Z,102792.69
2023-02-04T20:51:02.786Z,102784.88
2023-02-04T20:53:38.676Z,102794.94
2023-02-04T20:56:54.127Z,102789.19
2023-02-04T20:59:20.745Z,102790.28
2023-02-04T21:01:49.981Z,102788.34
2023-02-04T21:04:33.787Z,102779.53
2023-02-04T21:07:06.588Z,102781.72
2023-02-04T21:09:34.446Z,102786.84
2023-02-04T21:12:02.320Z,102783.38
2023-02-04T21:14:29.818Z,102792.88
2023-02-04T21:16:56.658Z,102800.75
2023-02-04T21:19:25.206Z,102798.88
2023-02-04T21:21:52.349Z,102808.84
2023-02-04T21:24:18.997Z,102797.47
2023-02-04T21:26:45.594Z,102802.53
2023-02-04T21:29:12.366Z,102808.31
2023-02-04T21:31:39.344Z,102800.78
2023-02-04T21:34:06.426Z,102805.53
2023-02-04T21:36:33.175Z,102808.22
2023-02-04T21:39:00.180Z,102810.28
2023-02-04T21:41:26.797Z,102806.38
2023-02-04T21:43:53.774Z,102816.69
2023-02-04T21:46:20.650Z,102806.66
2023-02-04T21:48:47.491Z,102801.28
2023-02-04T21:51:15.192Z,102801.28
2023-02-04T21:53:42.162Z,102802.25
2023-02-04T21:56:09.392Z,102804.66
2023-02-04T21:58:36.456Z,102796.84
2023-02-04T22:01:03.141Z,102787.28
2023-02-04T22:03:29.757Z,102790.66
2023-02-04T22:05:56.288Z,102788.75
2023-02-04T22:08:22.964Z,102792.38
2023-02-04T22:10:49.517Z,102793.72
2023-02-04T22:13:16.110Z,102791.28
2023-02-04T22:15:42.734Z,102791.91
2023-02-04T22:18:09.497Z,102786.31
2023-02-04T22:20:38.003Z,102781.72
2023-02-04T22:23:05.725Z,102782.28
2023-02-04T22:25:32.540Z,102774.50
2023-02-04T22:27:59.504Z,102776.22
2023-02-04T22:30:26.251Z,102770.81
2023-02-04T22:32:53.004Z,102770.03
2023-02-04T22:35:19.731Z,102765.41
2023-02-04T22:37:46.433Z,102771.69
2023-02-04T22:40:13.507Z,102763.13
2023-02-04T22:42:40.148Z,102777.50
2023-02-04T22:45:07.905Z,102774.97
2023-02-04T22:47:34.485Z,102782.28
2023-02-04T22:50:01.078Z,102772.66
2023-02-04T22:52:27.903Z,102775.91
2023-02-04T22:54:54.509Z,102772.50
2023-02-04T22:57:21.236Z,102773.63
2023-02-04T22:59:47.889Z,102785.84
2023-02-04T23:02:14.514Z,102779.53
2023-02-04T23:04:43.914Z,102777.47
2023-02-04T23:07:12.077Z,102784.84
2023-02-04T23:09:38.698Z,102775.56
2023-02-04T23:12:14.860Z,102778.41
2023-02-04T23:14:44.257Z,102772.91
2023-02-04T23:17:11.447Z,102773.13
2023-02-04T23:19:38.070Z,102781.38
2023-02-04T23:22:06.304Z,102773.63
2023-02-04T23:24:33.340Z,102771.81
2023-02-04T23:27:01.384Z,102774.19
2023-02-04T23:29:28.461Z,102779.69
2023-02-04T23:31:55.949Z,102772.59
2023-02-04T23:34:22.732Z,102779.91
2023-02-04T23:36:51.095Z,102768.56
2023-02-04T23:39:21.534Z,102765.13
2023-02-04T23:41:49.095Z,102762.59
2023-02-04T23:44:15.886Z,102768.06
2023-02-04T23:46:42.563Z,102757.13
2023-02-04T23:49:09.580Z,102768.72
2023-02-04T23:51:36.243Z,102763.75
2023-02-04T23:54:03.401Z,102756.25
2023-02-04T23:56:30.278Z,102758.94
2023-02-04T23:58:57.009Z,102745.97
